createdAt,value
2023-05-24T00:19:59.908Z,500.00
2023-05-24T00:20:59.892Z,500.00
2023-05-24T00:21:59.871Z,500.00
2023-05-24T00:22:59.863Z,500.00
2023-05-24T00:24:00.087Z,500.00
2023-05-24T00:24:59.862Z,498.00
2023-05-24T00:25:59.847Z,500.00
2023-05-24T00:26:59.847Z,507.00
2023-05-24T00:27:59.844Z,500.00
2023-05-24T00:29:00.109Z,501.00
2023-05-24T00:29:59.816Z,500.00
2023-05-24T00:30:59.822Z,500.00
2023-05-24T00:31:59.853Z,500.00
2023-05-24T00:32:59.861Z,503.00
2023-05-24T00:34:00.072Z,502.00
2023-05-24T00:34:59.777Z,500.00
2023-05-24T00:35:59.787Z,506.00
2023-05-24T00:36:59.770Z,521.00
2023-05-24T00:37:59.770Z,507.00
2023-05-24T00:38:59.789Z,502.00
2023-05-24T00:39:59.748Z,504.00
2023-05-24T00:40:59.736Z,504.00
2023-05-24T00:41:59.731Z,500.00
2023-05-24T00:42:59.731Z,506.00
2023-05-24T00:43:59.726Z,504.00
2023-05-24T00:44:59.727Z,502.00
2023-05-24T00:45:59.774Z,507.00
2023-05-24T00:46:59.701Z,508.00
2023-05-24T00:47:59.733Z,505.00
2023-05-24T00:48:59.687Z,514.00
2023-05-24T00:49:59.696Z,512.00
2023-05-24T00:50:59.669Z,511.00
2023-05-24T00:51:59.679Z,518.00
2023-05-24T00:52:59.679Z,502.00
2023-05-24T00:53:59.650Z,506.00
2023-05-24T00:54:59.646Z,511.00
2023-05-24T00:55:59.646Z,505.00
2023-05-24T00:56:59.627Z,506.00
2023-05-24T00:57:59.646Z,504.00
2023-05-24T00:58:59.616Z,500.00
2023-05-24T00:59:59.613Z,502.00
2023-05-24T01:00:59.610Z,513.00
2023-05-24T01:01:59.699Z,509.00
2023-05-24T01:02:59.668Z,503.00
2023-05-24T01:03:59.814Z,500.00
2023-05-24T01:04:59.567Z,504.00
2023-05-24T01:05:59.556Z,521.00
2023-05-24T01:06:59.551Z,507.00
2023-05-24T01:07:59.558Z,510.00
2023-05-24T01:08:59.545Z,522.00
2023-05-24T01:09:59.558Z,520.00
2023-05-24T01:10:59.529Z,516.00
2023-05-24T01:11:59.536Z,522.00
2023-05-24T01:12:59.526Z,510.00
2023-05-24T01:13:59.513Z,505.00
2023-05-24T01:14:59.521Z,508.00
2023-05-24T01:15:59.528Z,518.00
2023-05-24T01:16:59.488Z,510.00
2023-05-24T01:17:59.521Z,498.00
2023-05-24T01:18:59.480Z,519.00
2023-05-24T01:19:59.496Z,520.00
2023-05-24T01:20:59.461Z,515.00
2023-05-24T01:21:59.448Z,513.00
2023-05-24T01:22:59.444Z,515.00
2023-05-24T01:23:59.435Z,515.00
2023-05-24T01:24:59.441Z,509.00
2023-05-24T01:25:59.425Z,500.00
2023-05-24T01:26:59.418Z,503.00
2023-05-24T01:27:59.424Z,509.00
2023-05-24T01:28:59.411Z,504.00
2023-05-24T01:29:59.456Z,512.00
2023-05-24T01:30:59.434Z,515.00
2023-05-24T01:31:59.370Z,500.00
2023-05-24T01:32:59.403Z,505.00
2023-05-24T01:33:59.372Z,504.00
2023-05-24T01:34:59.381Z,512.00
2023-05-24T01:35:59.371Z,512.00
2023-05-24T01:36:59.369Z,505.00
2023-05-24T01:37:59.339Z,507.00
2023-05-24T01:38:59.331Z,505.00
2023-05-24T01:39:59.338Z,505.00
2023-05-24T01:40:59.344Z,502.00
2023-05-24T01:41:59.306Z,512.00
2023-05-24T01:42:59.302Z,515.00
2023-05-24T01:43:59.309Z,511.00
2023-05-24T01:44:59.300Z,505.00
2023-05-24T01:45:59.309Z,504.00
2023-05-24T01:46:59.329Z,524.00
2023-05-24T01:47:59.385Z,524.00
2023-05-24T01:48:59.287Z,525.00
2023-05-24T01:49:59.285Z,508.00
2023-05-24T01:50:59.265Z,520.00
2023-05-24T01:51:59.363Z,515.00
2023-05-24T01:52:59.284Z,512.00
2023-05-24T01:53:59.317Z,516.00
2023-05-24T01:54:59.317Z,502.00
2023-05-24T01:55:59.349Z,514.00
2023-05-24T01:56:59.355Z,521.00
2023-05-24T01:57:59.382Z,514.00
2023-05-24T01:58:59.396Z,523.00
2023-05-24T01:59:59.405Z,537.00
2023-05-24T02:00:59.456Z,533.00
2023-05-24T02:01:59.440Z,560.00
2023-05-24T02:02:59.546Z,528.00
2023-05-24T02:03:59.441Z,529.00
2023-05-24T02:04:59.458Z,532.00
2023-05-24T02:05:59.470Z,522.00
2023-05-24T02:06:59.478Z,524.00
2023-05-24T02:07:59.509Z,536.00
2023-05-24T02:08:59.516Z,516.00
2023-05-24T02:09:59.511Z,500.00
2023-05-24T02:10:59.539Z,514.00
2023-05-24T02:11:59.546Z,519.00
2023-05-24T02:12:59.638Z,504.00
2023-05-24T02:13:59.603Z,508.00
2023-05-24T02:14:59.589Z,518.00
2023-05-24T02:15:59.619Z,517.00
2023-05-24T02:16:59.669Z,524.00
2023-05-24T02:17:59.694Z,527.00
2023-05-24T02:18:59.663Z,531.00
2023-05-24T02:19:59.737Z,538.00
2023-05-24T02:20:59.701Z,525.00
2023-05-24T02:21:59.701Z,537.00
2023-05-24T02:22:59.718Z,540.00
2023-05-24T02:23:59.733Z,539.00
2023-05-24T02:24:59.738Z,554.00
2023-05-24T02:25:59.779Z,524.00
2023-05-24T02:26:59.773Z,522.00
2023-05-24T02:27:59.805Z,535.00
2023-05-24T02:28:59.810Z,539.00
2023-05-24T02:29:59.817Z,545.00
2023-05-24T02:30:59.855Z,561.00
2023-05-24T02:31:59.853Z,553.00
2023-05-24T02:32:59.944Z,551.00
2023-05-24T02:33:59.891Z,552.00
2023-05-24T02:34:59.910Z,551.00
2023-05-24T02:35:59.927Z,553.00
2023-05-24T02:36:59.935Z,548.00
2023-05-24T02:37:59.973Z,552.00
2023-05-24T02:38:59.976Z,558.00
2023-05-24T02:39:59.992Z,558.00
2023-05-24T02:41:00.008Z,556.00
2023-05-24T02:42:00.104Z,552.00
2023-05-24T02:43:00.060Z,539.00
2023-05-24T02:44:00.101Z,519.00
2023-05-24T02:45:00.114Z,521.00
2023-05-24T02:46:00.152Z,511.00
2023-05-24T02:47:00.154Z,506.00
2023-05-24T02:48:00.340Z,530.00
2023-05-24T02:49:00.232Z,546.00
2023-05-24T02:50:00.216Z,552.00
2023-05-24T02:51:00.216Z,558.00
2023-05-24T02:52:00.248Z,538.00
2023-05-24T02:53:00.262Z,539.00
2023-05-24T02:54:00.272Z,540.00
2023-05-24T02:55:00.299Z,549.00
2023-05-24T02:56:00.305Z,548.00
2023-05-24T02:57:00.330Z,542.00
2023-05-24T02:58:00.344Z,527.00
2023-05-24T02:59:00.371Z,526.00
2023-05-24T03:00:00.390Z,540.00
2023-05-24T03:01:00.410Z,546.00
2023-05-24T03:02:00.471Z,534.00
2023-05-24T03:03:00.531Z,531.00
2023-05-24T03:04:00.595Z,540.00
2023-05-24T03:05:00.499Z,539.00
2023-05-24T03:06:00.538Z,528.00
2023-05-24T03:07:00.520Z,536.00
2023-05-24T03:08:00.555Z,530.00
2023-05-24T03:09:00.580Z,527.00
2023-05-24T03:10:00.632Z,528.00
2023-05-24T03:11:00.626Z,528.00
2023-05-24T03:12:00.628Z,526.00
2023-05-24T03:13:00.656Z,532.00
2023-05-24T03:14:00.658Z,548.00
2023-05-24T03:15:00.678Z,537.00
2023-05-24T03:16:00.805Z,538.00
2023-05-24T03:17:00.713Z,540.00
2023-05-24T03:18:00.770Z,543.00
2023-05-24T03:19:00.740Z,542.00
2023-05-24T03:20:00.779Z,543.00
2023-05-24T03:21:00.805Z,528.00
2023-05-24T03:22:00.794Z,537.00
2023-05-24T03:23:00.816Z,545.00
2023-05-24T03:24:00.822Z,542.00
2023-05-24T03:25:00.856Z,536.00
2023-05-24T03:26:00.890Z,531.00
2023-05-24T03:27:00.891Z,530.00
2023-05-24T03:28:00.925Z,524.00
2023-05-24T03:29:00.962Z,526.00
2023-05-24T03:30:00.961Z,527.00
2023-05-24T03:31:01.015Z,522.00
2023-05-24T03:32:01.055Z,511.00
2023-05-24T03:33:01.071Z,510.00
2023-05-24T03:34:01.045Z,515.00
2023-05-24T03:35:01.053Z,520.00
2023-05-24T03:36:01.109Z,506.00
2023-05-24T03:37:01.089Z,501.00
2023-05-24T03:38:01.100Z,499.00
2023-05-24T03:39:01.123Z,514.00
2023-05-24T03:40:01.155Z,532.00
2023-05-24T03:41:01.170Z,532.00
2023-05-24T03:42:01.194Z,540.00
2023-05-24T03:43:03.008Z,538.00
2023-05-24T03:44:01.203Z,535.00
2023-05-24T03:45:01.196Z,543.00
2023-05-24T03:46:01.297Z,548.00
2023-05-24T03:47:01.177Z,549.00
2023-05-24T03:48:01.225Z,548.00
2023-05-24T03:49:01.176Z,552.00
2023-05-24T03:50:01.160Z,552.00
2023-05-24T03:51:01.151Z,559.00
2023-05-24T03:52:01.153Z,542.00
2023-05-24T03:53:01.155Z,545.00
2023-05-24T03:54:01.146Z,557.00
2023-05-24T03:55:01.119Z,559.00
2023-05-24T03:56:01.129Z,544.00
2023-05-24T03:57:01.120Z,555.00
2023-05-24T03:58:01.106Z,542.00
2023-05-24T03:59:01.118Z,552.00
2023-05-24T04:00:01.097Z,555.00
2023-05-24T04:01:01.111Z,556.00
2023-05-24T04:02:01.126Z,542.00
2023-05-24T04:03:01.170Z,518.00
2023-05-24T04:04:01.113Z,528.00
2023-05-24T04:05:01.062Z,534.00
2023-05-24T04:06:01.056Z,539.00
2023-05-24T04:07:01.065Z,543.00
2023-05-24T04:08:01.042Z,528.00
2023-05-24T04:09:01.032Z,528.00
2023-05-24T04:10:01.039Z,520.00
2023-05-24T04:11:01.034Z,521.00
2023-05-24T04:12:01.034Z,521.00
2023-05-24T04:13:00.999Z,544.00
2023-05-24T04:14:01.005Z,537.00
2023-05-24T04:15:00.997Z,537.00
2023-05-24T04:16:00.985Z,507.00
2023-05-24T04:17:01.143Z,502.00
2023-05-24T04:18:01.037Z,520.00
2023-05-24T04:19:01.062Z,531.00
2023-05-24T04:20:00.983Z,521.00
2023-05-24T04:21:00.951Z,517.00
2023-05-24T04:22:00.936Z,507.00
2023-05-24T04:23:00.948Z,518.00
2023-05-24T04:24:00.920Z,519.00
2023-05-24T04:25:00.943Z,523.00
2023-05-24T04:26:00.910Z,527.00
2023-05-24T04:27:00.923Z,531.00
2023-05-24T04:28:00.892Z,516.00
2023-05-24T04:29:00.896Z,502.00
2023-05-24T04:30:00.888Z,507.00
2023-05-24T04:31:00.930Z,514.00
2023-05-24T04:32:00.887Z,525.00
2023-05-24T04:33:00.919Z,521.00
2023-05-24T04:34:00.850Z,528.00
2023-05-24T04:35:00.835Z,511.00
2023-05-24T04:36:00.842Z,505.00
2023-05-24T04:37:00.836Z,514.00
2023-05-24T04:38:00.850Z,515.00
2023-05-24T04:39:00.822Z,512.00
2023-05-24T04:40:00.817Z,505.00
2023-05-24T04:41:00.813Z,502.00
2023-05-24T04:42:00.819Z,510.00
2023-05-24T04:43:00.792Z,521.00
2023-05-24T04:44:00.790Z,529.00
2023-05-24T04:45:00.797Z,524.00
2023-05-24T04:46:00.768Z,523.00
2023-05-24T04:47:00.822Z,504.00
2023-05-24T04:48:00.866Z,514.00
2023-05-24T04:49:00.745Z,498.00
2023-05-24T04:50:00.745Z,521.00
2023-05-24T04:51:00.723Z,529.00
2023-05-24T04:52:00.729Z,528.00
2023-05-24T04:53:00.713Z,513.00
2023-05-24T04:54:00.715Z,521.00
2023-05-24T04:55:00.731Z,530.00
2023-05-24T04:56:00.689Z,538.00
2023-05-24T04:57:00.701Z,531.00
2023-05-24T04:58:00.797Z,519.00
2023-05-24T04:59:00.673Z,522.00
2023-05-24T05:00:00.688Z,534.00
2023-05-24T05:01:00.665Z,537.00
2023-05-24T05:02:00.776Z,530.00
2023-05-24T05:03:00.741Z,525.00
2023-05-24T05:04:00.737Z,510.00
2023-05-24T05:05:00.629Z,510.00
2023-05-24T05:06:00.630Z,520.00
2023-05-24T05:07:00.613Z,522.00
2023-05-24T05:08:00.619Z,525.00
2023-05-24T05:09:00.598Z,536.00
2023-05-24T05:10:00.601Z,527.00
2023-05-24T05:11:00.584Z,521.00
2023-05-24T05:12:00.604Z,520.00
2023-05-24T05:13:00.604Z,517.00
2023-05-24T05:14:00.634Z,531.00
2023-05-24T05:15:00.663Z,529.00
2023-05-24T05:16:00.664Z,537.00
2023-05-24T05:17:00.687Z,522.00
2023-05-24T05:18:00.755Z,505.00
2023-05-24T05:19:00.724Z,513.00
2023-05-24T05:20:00.787Z,502.00
2023-05-24T05:21:00.789Z,516.00
2023-05-24T05:22:00.813Z,511.00
2023-05-24T05:23:00.803Z,507.00
2023-05-24T05:24:00.838Z,510.00
2023-05-24T05:25:00.860Z,509.00
2023-05-24T05:26:00.868Z,511.00
2023-05-24T05:27:00.873Z,512.00
2023-05-24T05:28:00.921Z,517.00
2023-05-24T05:29:00.999Z,519.00
2023-05-24T05:30:00.922Z,528.00
2023-05-24T05:31:01.012Z,530.00
2023-05-24T05:32:01.012Z,544.00
2023-05-24T05:33:01.098Z,546.00
2023-05-24T05:34:01.048Z,516.00
2023-05-24T05:35:01.119Z,517.00
2023-05-24T05:36:01.270Z,513.00
2023-05-24T05:37:01.115Z,508.00
2023-05-24T05:38:01.160Z,518.00
2023-05-24T05:39:01.131Z,543.00
2023-05-24T05:40:01.235Z,565.00
2023-05-24T05:41:01.231Z,594.00
2023-05-24T05:42:01.184Z,625.00
2023-05-24T05:43:01.204Z,645.00
2023-05-24T05:44:01.208Z,647.00
2023-05-24T05:45:01.263Z,660.00
2023-05-24T05:46:01.254Z,694.00
2023-05-24T05:47:01.231Z,737.00
2023-05-24T05:48:01.262Z,729.00
2023-05-24T05:49:01.240Z,700.00
2023-05-24T05:50:01.249Z,651.00
2023-05-24T05:51:01.288Z,639.00
2023-05-24T05:52:01.253Z,624.00
2023-05-24T05:53:01.281Z,611.00
2023-05-24T05:54:01.260Z,599.00
2023-05-24T05:55:01.269Z,599.00
2023-05-24T05:56:02.251Z,592.00
2023-05-24T05:57:01.716Z,585.00
2023-05-24T05:58:01.362Z,583.00
2023-05-24T05:59:01.306Z,587.00
2023-05-24T06:00:01.360Z,579.00
2023-05-24T06:01:01.401Z,571.00
2023-05-24T06:02:01.385Z,568.00
2023-05-24T06:03:01.397Z,576.00
2023-05-24T06:04:01.423Z,563.00
2023-05-24T06:05:01.435Z,557.00
2023-05-24T06:06:01.418Z,557.00
2023-05-24T06:07:01.485Z,562.00
2023-05-24T06:08:01.435Z,557.00
2023-05-24T06:09:01.453Z,552.00
2023-05-24T06:10:01.491Z,558.00
2023-05-24T06:11:01.495Z,540.00
2023-05-24T06:12:01.555Z,552.00
2023-05-24T06:13:01.640Z,550.00
2023-05-24T06:14:01.590Z,553.00
2023-05-24T06:15:01.603Z,554.00
2023-05-24T06:16:01.752Z,544.00
2023-05-24T06:17:01.633Z,546.00
2023-05-24T06:18:01.727Z,530.00
2023-05-24T06:19:06.376Z,541.00
2023-05-24T06:20:02.706Z,541.00
2023-05-24T06:21:01.680Z,542.00
2023-05-24T06:22:01.744Z,539.00
2023-05-24T06:23:01.659Z,535.00
2023-05-24T06:24:01.658Z,536.00
2023-05-24T06:25:01.670Z,540.00
2023-05-24T06:26:01.718Z,532.00
2023-05-24T06:27:03.259Z,533.00
2023-05-24T06:28:01.614Z,535.00
2023-05-24T06:29:01.619Z,525.00
2023-05-24T06:30:01.705Z,526.00
2023-05-24T06:31:01.634Z,528.00
2023-05-24T06:32:01.620Z,528.00
2023-05-24T06:33:01.689Z,522.00
2023-05-24T06:34:04.233Z,513.00
2023-05-24T06:35:01.575Z,514.00
2023-05-24T06:36:01.666Z,515.00
2023-05-24T06:37:01.557Z,529.00
2023-05-24T06:38:01.558Z,555.00
2023-05-24T06:39:01.582Z,612.00
2023-05-24T06:40:01.575Z,649.00
2023-05-24T06:41:01.584Z,718.00
2023-05-24T06:42:01.550Z,825.00
2023-05-24T06:43:01.540Z,924.00
2023-05-24T06:44:01.522Z,1015.00
2023-05-24T06:45:01.571Z,1088.00
2023-05-24T06:46:01.741Z,1100.00
2023-05-24T06:47:01.537Z,1148.00
2023-05-24T06:48:01.649Z,1156.00
2023-05-24T06:49:01.595Z,1202.00
2023-05-24T06:50:01.576Z,1195.00
2023-05-24T06:51:01.737Z,1238.00
2023-05-24T06:52:01.762Z,1290.00
2023-05-24T06:53:01.470Z,1316.00
2023-05-24T06:54:01.458Z,1336.00
2023-05-24T06:55:01.479Z,1336.00
2023-05-24T06:56:01.443Z,1361.00
2023-05-24T06:57:01.490Z,1343.00
2023-05-24T06:58:01.456Z,1351.00
2023-05-24T06:59:01.471Z,1374.00
2023-05-24T07:00:01.607Z,1381.00
2023-05-24T07:01:01.463Z,1400.00
2023-05-24T07:02:03.683Z,1436.00
2023-05-24T07:03:01.450Z,1439.00
2023-05-24T07:04:01.477Z,1447.00
2023-05-24T07:05:01.439Z,1457.00
2023-05-24T07:06:01.406Z,1479.00
2023-05-24T07:07:01.417Z,1473.00
2023-05-24T07:08:01.396Z,1453.00
2023-05-24T07:09:01.375Z,1335.00
2023-05-24T07:10:01.377Z,1137.00
2023-05-24T07:11:01.382Z,1098.00
2023-05-24T07:12:01.358Z,1165.00
2023-05-24T07:13:01.347Z,1230.00
2023-05-24T07:14:01.371Z,1289.00
2023-05-24T07:15:01.336Z,1349.00
2023-05-24T07:16:01.395Z,1375.00
2023-05-24T07:17:01.401Z,1370.00
2023-05-24T07:18:01.369Z,1349.00
2023-05-24T07:19:03.976Z,1337.00
2023-05-24T07:20:01.476Z,1338.00
2023-05-24T07:21:01.447Z,1339.00
2023-05-24T07:22:01.293Z,1323.00
2023-05-24T07:23:01.283Z,1309.00
2023-05-24T07:24:01.304Z,1316.00
2023-05-24T07:25:01.328Z,1352.00
2023-05-24T07:26:01.266Z,1324.00
2023-05-24T07:27:01.275Z,1340.00
2023-05-24T07:28:01.236Z,1370.00
2023-05-24T07:29:01.250Z,1388.00
2023-05-24T07:30:01.294Z,1365.00
2023-05-24T07:31:01.223Z,1329.00
2023-05-24T07:32:01.397Z,1339.00
2023-05-24T07:33:01.665Z,1323.00
2023-05-24T07:34:01.236Z,1228.00
2023-05-24T07:35:01.197Z,1175.00
2023-05-24T07:36:01.186Z,1113.00
2023-05-24T07:37:01.208Z,1062.00
2023-05-24T07:38:01.238Z,1047.00
2023-05-24T07:39:01.240Z,1064.00
2023-05-24T07:40:01.159Z,1029.00
2023-05-24T07:41:01.157Z,1017.00
2023-05-24T07:42:01.157Z,1051.00
2023-05-24T07:43:01.600Z,1107.00
2023-05-24T07:44:01.158Z,1168.00
2023-05-24T07:45:01.131Z,1186.00
2023-05-24T07:46:01.137Z,1161.00
2023-05-24T07:47:01.106Z,1143.00
2023-05-24T07:48:01.175Z,1204.00
2023-05-24T07:49:01.120Z,1217.00
2023-05-24T07:50:01.090Z,1202.00
2023-05-24T07:51:01.090Z,1238.00
2023-05-24T07:52:01.093Z,1256.00
2023-05-24T07:53:01.160Z,1280.00
2023-05-24T07:54:01.240Z,1248.00
2023-05-24T07:55:01.072Z,1250.00
2023-05-24T07:56:01.095Z,1243.00
2023-05-24T07:57:01.049Z,1237.00
2023-05-24T07:58:01.082Z,1212.00
2023-05-24T07:59:01.041Z,1230.00
2023-05-24T08:00:01.033Z,1284.00
2023-05-24T08:01:01.042Z,1291.00
2023-05-24T08:02:01.026Z,1273.00
2023-05-24T08:03:01.133Z,1227.00
2023-05-24T08:04:01.160Z,1173.00
2023-05-24T08:05:00.996Z,1172.00
2023-05-24T08:06:00.987Z,1202.00
2023-05-24T08:07:01.003Z,1186.00
2023-05-24T08:08:00.973Z,1167.00
2023-05-24T08:09:00.966Z,1190.00
2023-05-24T08:10:00.961Z,1228.00
2023-05-24T08:11:00.967Z,1251.00
2023-05-24T08:12:01.029Z,1224.00
2023-05-24T08:13:01.073Z,1246.00
2023-05-24T08:14:01.051Z,1221.00
2023-05-24T08:15:01.105Z,1230.00
2023-05-24T08:16:01.163Z,1293.00
2023-05-24T08:17:01.214Z,1269.00
2023-05-24T08:18:01.285Z,1262.00
2023-05-24T08:19:01.287Z,1267.00
2023-05-24T08:20:01.584Z,1261.00
2023-05-24T08:21:01.419Z,1270.00
2023-05-24T08:22:01.466Z,1258.00
2023-05-24T08:23:01.515Z,1257.00
2023-05-24T08:24:01.570Z,1229.00
2023-05-24T08:25:01.662Z,1197.00
2023-05-24T08:26:01.717Z,1189.00
2023-05-24T08:27:01.754Z,1258.00
2023-05-24T08:28:01.870Z,1146.00
2023-05-24T08:29:01.872Z,831.00
2023-05-24T08:30:01.994Z,666.00
2023-05-24T08:31:01.996Z,601.00
2023-05-24T08:32:02.383Z,559.00
2023-05-24T08:33:02.110Z,517.00
2023-05-24T08:34:02.059Z,497.00
2023-05-24T08:35:17.503Z,500.00
2023-05-24T08:36:03.074Z,495.00
2023-05-24T08:37:02.000Z,474.00
2023-05-24T08:38:02.066Z,456.00
2023-05-24T08:39:01.976Z,420.00
2023-05-24T08:40:01.962Z,418.00
2023-05-24T08:41:02.029Z,445.00
2023-05-24T08:43:01.966Z,523.00
2023-05-24T08:44:01.948Z,574.00
2023-05-24T08:45:01.933Z,645.00
2023-05-24T08:46:02.838Z,736.00
2023-05-24T08:47:01.951Z,833.00
2023-05-24T08:48:01.989Z,865.00
2023-05-24T08:49:01.960Z,989.00
2023-05-24T08:50:01.903Z,1133.00
2023-05-24T08:51:02.345Z,1224.00
2023-05-24T08:52:02.316Z,1282.00
2023-05-24T08:53:01.907Z,1319.00
2023-05-24T08:54:01.934Z,1354.00
2023-05-24T08:55:01.887Z,1367.00
2023-05-24T08:56:02.369Z,1395.00
2023-05-24T08:57:01.911Z,1427.00
2023-05-24T08:58:01.904Z,1424.00
2023-05-24T08:59:01.976Z,1385.00
2023-05-24T09:00:01.924Z,1290.00
2023-05-24T09:01:01.871Z,1278.00
2023-05-24T09:02:01.888Z,1214.00
2023-05-24T09:03:01.844Z,1170.00
2023-05-24T09:04:01.853Z,1104.00
2023-05-24T09:05:01.812Z,1101.00
2023-05-24T09:06:01.907Z,1098.00
2023-05-24T09:07:01.793Z,1109.00
2023-05-24T09:08:01.814Z,1136.00
2023-05-24T09:09:01.782Z,1189.00
2023-05-24T09:10:01.789Z,1159.00
2023-05-24T09:11:01.894Z,1100.00
2023-05-24T09:12:01.777Z,1141.00
2023-05-24T09:13:01.820Z,1089.00
2023-05-24T09:14:01.806Z,1095.00
2023-05-24T09:15:01.778Z,1051.00
2023-05-24T09:16:01.787Z,1027.00
2023-05-24T09:17:01.756Z,990.00
2023-05-24T09:18:01.782Z,1031.00
2023-05-24T09:19:01.787Z,987.00
2023-05-24T09:20:01.778Z,987.00
2023-05-24T09:21:01.703Z,987.00
2023-05-24T09:22:01.699Z,1005.00
2023-05-24T09:23:01.691Z,1010.00
2023-05-24T09:24:01.685Z,943.00
2023-05-24T09:25:01.689Z,948.00
2023-05-24T09:26:01.662Z,874.00
2023-05-24T09:27:01.701Z,898.00
2023-05-24T09:28:01.794Z,900.00
2023-05-24T09:29:01.884Z,851.00
2023-05-24T09:30:01.895Z,885.00
2023-05-24T09:31:03.934Z,950.00
2023-05-24T09:32:02.002Z,967.00
2023-05-24T09:33:02.035Z,940.00
2023-05-24T09:34:01.949Z,906.00
2023-05-24T09:35:01.985Z,885.00
2023-05-24T09:36:01.965Z,887.00
2023-05-24T09:37:02.336Z,704.00
2023-05-24T09:38:01.971Z,755.00
2023-05-24T09:39:01.896Z,754.00
2023-05-24T09:40:01.986Z,864.00
2023-05-24T09:41:01.907Z,777.00
2023-05-24T09:42:01.910Z,764.00
2023-05-24T09:43:01.938Z,737.00
2023-05-24T09:44:01.863Z,689.00
2023-05-24T09:45:01.933Z,749.00
2023-05-24T09:46:01.859Z,659.00
2023-05-24T09:47:01.992Z,649.00
2023-05-24T09:48:01.915Z,627.00
2023-05-24T09:49:01.871Z,634.00
2023-05-24T09:50:01.848Z,633.00
2023-05-24T09:51:01.884Z,661.00
2023-05-24T09:52:02.476Z,741.00
2023-05-24T09:53:01.824Z,753.00
2023-05-24T09:54:01.823Z,764.00
2023-05-24T09:55:01.809Z,753.00
2023-05-24T09:56:02.077Z,788.00
2023-05-24T09:57:03.470Z,717.00
2023-05-24T09:58:01.795Z,705.00
2023-05-24T09:59:01.810Z,651.00
2023-05-24T10:00:01.913Z,644.00
2023-05-24T10:01:01.839Z,656.00
2023-05-24T10:02:01.851Z,669.00
2023-05-24T10:03:01.828Z,719.00
2023-05-24T10:04:01.869Z,751.00
2023-05-24T10:05:01.771Z,749.00
2023-05-24T10:06:01.730Z,681.00
2023-05-24T10:07:01.834Z,653.00
2023-05-24T10:08:01.725Z,656.00
2023-05-24T10:09:01.728Z,644.00
2023-05-24T10:10:01.735Z,675.00
2023-05-24T10:11:01.708Z,686.00
2023-05-24T10:12:01.859Z,692.00
2023-05-24T10:13:01.743Z,710.00
2023-05-24T10:14:01.721Z,669.00
2023-05-24T10:15:01.698Z,649.00
2023-05-24T10:16:01.690Z,621.00
2023-05-24T10:17:01.724Z,609.00
2023-05-24T10:18:01.896Z,565.00
2023-05-24T10:19:01.653Z,556.00
2023-05-24T10:20:01.701Z,573.00
2023-05-24T10:21:01.922Z,575.00
2023-05-24T10:22:01.650Z,606.00
2023-05-24T10:23:01.988Z,625.00
2023-05-24T10:24:01.618Z,579.00
2023-05-24T10:25:01.616Z,602.00
2023-05-24T10:26:01.612Z,608.00
2023-05-24T10:27:01.837Z,615.00
2023-05-24T10:28:01.647Z,640.00
2023-05-24T10:29:01.600Z,611.00
2023-05-24T10:30:01.692Z,573.00
2023-05-24T10:31:01.742Z,574.00
2023-05-24T10:32:01.852Z,605.00
2023-05-24T10:33:01.586Z,623.00
2023-05-24T10:34:07.587Z,631.00
2023-05-24T10:35:02.572Z,631.00
2023-05-24T10:36:01.537Z,632.00
2023-05-24T10:37:02.334Z,638.00
2023-05-24T10:38:01.548Z,663.00
2023-05-24T10:39:01.577Z,759.00
2023-05-24T10:40:01.505Z,778.00
2023-05-24T10:41:01.586Z,760.00
2023-05-24T10:42:01.488Z,712.00
2023-05-24T10:43:01.497Z,648.00
2023-05-24T10:44:09.913Z,584.00
2023-05-24T10:45:02.474Z,564.00
2023-05-24T10:46:01.512Z,565.00
2023-05-24T10:47:01.462Z,556.00
2023-05-24T10:48:01.511Z,571.00
2023-05-24T10:49:01.452Z,589.00
2023-05-24T10:50:01.458Z,619.00
2023-05-24T10:51:01.423Z,661.00
2023-05-24T10:52:01.499Z,717.00
2023-05-24T10:53:01.423Z,753.00
2023-05-24T10:54:01.501Z,791.00
2023-05-24T10:55:04.416Z,805.00
2023-05-24T10:56:01.424Z,801.00
2023-05-24T10:57:01.413Z,763.00
2023-05-24T10:58:01.405Z,760.00
2023-05-24T10:59:01.407Z,777.00
2023-05-24T11:00:01.398Z,802.00
2023-05-24T11:01:01.386Z,825.00
2023-05-24T11:02:01.448Z,829.00
2023-05-24T11:03:01.489Z,840.00
2023-05-24T11:04:01.376Z,823.00
2023-05-24T11:05:01.399Z,818.00
2023-05-24T11:06:01.433Z,822.00
2023-05-24T11:07:01.364Z,806.00
2023-05-24T11:08:01.349Z,803.00
2023-05-24T11:09:01.363Z,767.00
2023-05-24T11:10:01.388Z,742.00
2023-05-24T11:11:11.468Z,717.00
2023-05-24T11:12:02.323Z,714.00
2023-05-24T11:13:01.340Z,655.00
2023-05-24T11:14:01.385Z,678.00
2023-05-24T11:15:01.297Z,719.00
2023-05-24T11:16:01.403Z,740.00
2023-05-24T11:17:01.303Z,794.00
2023-05-24T11:18:01.379Z,798.00
2023-05-24T11:19:01.253Z,821.00
2023-05-24T11:20:01.325Z,817.00
2023-05-24T11:21:01.306Z,872.00
2023-05-24T11:41:51.817Z,500.00
2023-05-24T11:42:51.718Z,500.00
2023-05-24T11:43:51.702Z,500.00
2023-05-24T11:44:51.699Z,500.00
2023-05-24T11:45:51.720Z,500.00
2023-05-24T11:46:51.710Z,502.00
2023-05-24T11:47:51.710Z,503.00
2023-05-24T11:48:51.678Z,503.00
2023-05-24T11:49:51.662Z,500.00
2023-05-24T11:50:52.058Z,500.00
2023-05-24T11:53:10.961Z,500.00
2023-05-24T11:54:10.969Z,500.00
2023-05-24T11:55:11.045Z,500.00
2023-05-24T11:56:11.128Z,500.00
2023-05-24T11:57:11.254Z,500.00
2023-05-24T11:58:11.254Z,498.00
2023-05-24T11:59:11.318Z,503.00
2023-05-24T12:00:11.523Z,501.00
2023-05-24T12:01:11.458Z,501.00
2023-05-24T12:02:11.538Z,501.00
2023-05-24T12:03:11.612Z,503.00
2023-05-24T12:04:12.135Z,506.00
2023-05-24T12:05:11.655Z,502.00
2023-05-24T12:06:11.701Z,503.00
2023-05-24T12:07:11.762Z,506.00
2023-05-24T12:08:12.703Z,502.00
2023-05-24T12:09:11.896Z,504.00
2023-05-24T12:10:11.932Z,504.00
2023-05-24T12:11:11.994Z,505.00
2023-05-24T12:12:12.075Z,506.00
2023-05-24T12:13:12.135Z,505.00
2023-05-24T12:14:12.179Z,507.00
2023-05-24T12:15:12.252Z,509.00
2023-05-24T12:16:12.367Z,504.00
2023-05-24T12:17:12.367Z,500.00
2023-05-24T12:18:12.451Z,500.00
2023-05-24T12:19:23.869Z,501.00
2023-05-24T12:20:13.538Z,502.00
2023-05-24T12:21:12.441Z,502.00
2023-05-24T12:22:12.437Z,505.00
2023-05-24T12:23:12.434Z,516.00
2023-05-24T12:24:12.476Z,526.00
2023-05-24T12:25:12.418Z,526.00
2023-05-24T12:26:12.409Z,527.00
2023-05-24T12:27:12.405Z,523.00
2023-05-24T12:28:12.433Z,527.00
2023-05-24T12:29:12.497Z,522.00
2023-05-24T12:30:12.550Z,522.00
2023-05-24T12:31:12.665Z,527.00
2023-05-24T12:32:13.868Z,519.00
2023-05-24T12:33:12.760Z,520.00
2023-05-24T12:34:12.770Z,519.00
2023-05-24T12:35:12.820Z,516.00
2023-05-24T12:36:12.866Z,509.00
2023-05-24T12:37:13.780Z,515.00
2023-05-24T12:38:12.970Z,519.00
2023-05-24T12:39:13.020Z,514.00
2023-05-24T12:40:13.054Z,523.00
2023-05-24T12:41:14.146Z,522.00
2023-05-24T12:42:13.248Z,531.00
2023-05-24T12:43:13.186Z,530.00
2023-05-24T12:44:13.229Z,537.00
2023-05-24T12:45:13.338Z,538.00
2023-05-24T12:46:13.339Z,533.00
2023-05-24T12:47:13.467Z,529.00
2023-05-24T12:48:13.431Z,527.00
2023-05-24T12:49:13.427Z,528.00
2023-05-24T12:50:13.445Z,541.00
2023-05-24T12:51:13.471Z,542.00
2023-05-24T12:52:13.520Z,528.00
2023-05-24T12:53:13.552Z,517.00
2023-05-24T12:54:13.556Z,523.00
2023-05-24T12:55:13.598Z,531.00
2023-05-24T12:56:13.623Z,531.00
2023-05-24T12:57:13.660Z,533.00
2023-05-24T12:58:13.713Z,534.00
2023-05-24T12:59:13.736Z,532.00
2023-05-24T13:00:13.786Z,534.00
2023-05-24T13:01:13.920Z,529.00
2023-05-24T13:02:13.873Z,518.00
2023-05-24T13:03:13.919Z,519.00
2023-05-24T13:04:13.926Z,513.00
2023-05-24T13:05:13.995Z,519.00
2023-05-24T13:06:13.969Z,521.00